createdAt,value
2022-09-11T00:04:33.490Z,19.18
2022-09-11T00:14:35.527Z,19.06
2022-09-11T00:24:37.187Z,19.01
2022-09-11T00:34:39.197Z,18.97
2022-09-11T00:44:42.026Z,18.98
2022-09-11T00:55:06.089Z,18.86
2022-09-11T01:05:08.483Z,18.47
2022-09-11T01:15:33.874Z,18.52
2022-09-11T01:25:53.979Z,18.46
2022-09-11T01:36:08.397Z,18.52
2022-09-11T01:46:16.501Z,18.57
2022-09-11T01:56:23.445Z,18.57
2022-09-11T02:06:36.486Z,18.63
2022-09-11T02:16:48.490Z,18.58
2022-09-11T02:26:54.251Z,18.32
2022-09-11T02:37:31.323Z,18.08
2022-09-11T02:47:45.061Z,18.06
2022-09-11T02:58:08.282Z,18.23
2022-09-11T03:08:11.968Z,18.23
2022-09-11T03:18:15.784Z,18.03
2022-09-11T03:28:17.405Z,18.03
2022-09-11T03:38:19.867Z,18.21
2022-09-11T03:48:21.704Z,18.27
2022-09-11T03:58:23.392Z,18.15
2022-09-11T04:08:25.567Z,18.23
2022-09-11T04:18:30.369Z,18.34
2022-09-11T04:28:31.962Z,18.27
2022-09-11T04:38:34.536Z,18.14
2022-09-11T04:48:37.859Z,18.18
2022-09-11T04:58:42.706Z,18.13
2022-09-11T05:08:45.900Z,18.11
2022-09-11T05:18:52.372Z,18.28
2022-09-11T05:28:57.858Z,18.25
2022-09-11T05:38:59.894Z,18.34
2022-09-11T05:49:01.494Z,18.14
2022-09-11T05:59:03.239Z,18.52
2022-09-11T06:09:10.342Z,19.03
2022-09-11T06:19:11.979Z,19.41
2022-09-11T06:29:14.908Z,19.62
2022-09-11T06:39:20.435Z,20.00
2022-09-11T06:49:22.053Z,19.63
2022-09-11T07:00:02.680Z,19.57
2022-09-11T07:10:10.958Z,20.33
2022-09-11T07:20:12.564Z,21.24
2022-09-11T07:30:14.830Z,20.95
2022-09-11T07:40:18.929Z,21.21
2022-09-11T07:50:20.868Z,21.06
2022-09-11T08:00:23.608Z,21.57
2022-09-11T08:10:38.804Z,21.40
2022-09-11T08:20:40.698Z,21.26
2022-09-11T08:30:43.255Z,20.72
2022-09-11T08:40:45.468Z,22.05
2022-09-11T08:50:49.530Z,24.66
2022-09-11T09:01:04.405Z,27.15
2022-09-11T09:11:36.246Z,26.66
2022-09-11T09:21:55.236Z,24.93
2022-09-11T09:32:04.420Z,24.76
2022-09-11T09:42:18.563Z,25.87
2022-09-11T09:52:24.658Z,25.77
2022-09-11T10:02:48.193Z,25.56
2022-09-11T10:12:50.028Z,25.29
2022-09-11T10:22:53.198Z,25.56
2022-09-11T10:32:58.081Z,25.46
2022-09-11T10:43:03.063Z,26.70
2022-09-11T10:53:23.299Z,25.62
2022-09-11T11:03:27.993Z,26.32
2022-09-11T11:13:48.023Z,26.12
2022-09-11T11:24:12.141Z,27.27
2022-09-11T11:34:22.614Z,28.75
2022-09-11T11:44:38.820Z,27.98
2022-09-11T11:54:59.932Z,27.75
2022-09-11T12:05:07.579Z,28.60
2022-09-11T12:15:19.772Z,29.12
2022-09-11T12:25:21.394Z,28.78
2022-09-11T12:35:45.182Z,28.40
2022-09-11T12:45:50.141Z,28.37
2022-09-11T12:55:57.795Z,28.38
2022-09-11T13:06:04.042Z,28.76
2022-09-11T13:16:22.758Z,31.08
2022-09-11T13:26:31.994Z,29.19
2022-09-11T13:36:36.266Z,29.14
2022-09-11T13:46:50.231Z,28.91
2022-09-11T13:56:54.798Z,28.68
2022-09-11T14:06:56.664Z,28.54
2022-09-11T14:17:01.349Z,28.33
2022-09-11T14:27:24.287Z,28.40
2022-09-11T14:37:28.240Z,30.04
2022-09-11T14:47:29.772Z,30.60
2022-09-11T14:57:33.913Z,29.64
2022-09-11T15:07:36.397Z,29.32
2022-09-11T15:17:38.087Z,28.85
2022-09-11T15:27:40.089Z,27.84
2022-09-11T15:37:42.111Z,26.81
2022-09-11T15:47:44.680Z,26.31
2022-09-11T15:57:46.171Z,26.02
2022-09-11T16:07:48.158Z,25.81
2022-09-11T16:17:49.772Z,25.47
2022-09-11T16:27:55.649Z,25.59
2022-09-11T16:37:57.597Z,25.10
2022-09-11T16:48:00.000Z,24.99
2022-09-11T16:58:01.513Z,24.98
2022-09-11T17:08:03.533Z,24.69
2022-09-11T17:18:05.007Z,24.25
2022-09-11T17:28:08.058Z,23.83
2022-09-11T17:38:11.139Z,23.29
2022-09-11T17:48:13.439Z,22.81
2022-09-11T17:58:14.932Z,22.48
2022-09-11T18:08:16.381Z,22.01
2022-09-11T18:18:18.006Z,21.51
2022-09-11T18:28:20.138Z,21.33
2022-09-11T18:38:21.712Z,21.17
2022-09-11T18:48:23.284Z,21.17
2022-09-11T18:58:25.119Z,21.17
2022-09-11T19:08:26.572Z,21.01
2022-09-11T19:18:28.040Z,20.96
2022-09-11T19:28:31.073Z,20.63
2022-09-11T19:38:36.665Z,20.23
2022-09-11T19:48:40.480Z,19.92
2022-09-11T19:58:42.960Z,19.57
2022-09-11T20:08:48.008Z,19.45
2022-09-11T20:18:54.091Z,19.31
2022-09-11T20:28:58.261Z,19.04
2022-09-11T20:39:00.632Z,18.85
2022-09-11T20:49:03.351Z,18.82
2022-09-11T20:59:08.434Z,18.72
2022-09-11T21:09:11.418Z,18.56
2022-09-11T21:19:12.938Z,18.26
2022-09-11T21:29:14.746Z,18.21
2022-09-11T21:39:16.302Z,17.99
2022-09-11T21:49:17.814Z,17.97
2022-09-11T21:59:20.364Z,17.92
2022-09-11T22:09:22.997Z,17.85
2022-09-11T22:19:25.480Z,17.71
2022-09-11T22:29:27.782Z,17.69
2022-09-11T22:39:33.635Z,17.55
2022-09-11T22:49:36.760Z,17.49
2022-09-11T22:59:39.730Z,17.46
2022-09-11T23:09:42.003Z,17.38
2022-09-11T23:19:45.424Z,17.26
2022-09-11T23:29:47.874Z,17.23
2022-09-11T23:39:50.785Z,17.21
2022-09-11T23:49:56.241Z,17.04
2022-09-11T23:59:58.573Z,17.10
